createdAt,value
2022-07-31T00:00:05.943Z,40.93
2022-07-31T00:01:05.877Z,41.41
2022-07-31T00:02:05.870Z,32.87
2022-07-31T00:03:05.942Z,32.39
2022-07-31T00:04:05.855Z,31.90
2022-07-31T00:05:05.844Z,33.03
2022-07-31T00:06:05.838Z,32.07
2022-07-31T00:07:06.246Z,35.77
2022-07-31T00:08:05.852Z,33.52
2022-07-31T00:09:05.823Z,30.94
2022-07-31T00:10:06.801Z,31.10
2022-07-31T00:11:05.793Z,32.07
2022-07-31T00:12:05.781Z,31.74
2022-07-31T00:13:06.814Z,34.64
2022-07-31T00:14:05.774Z,32.87
2022-07-31T00:15:05.815Z,34.00
2022-07-31T00:16:05.756Z,31.42
2022-07-31T00:17:05.998Z,32.23
2022-07-31T00:18:05.770Z,33.19
2022-07-31T00:19:05.737Z,32.07
2022-07-31T00:20:05.726Z,32.71
2022-07-31T00:21:05.723Z,35.13
2022-07-31T00:22:05.721Z,31.90
2022-07-31T00:23:05.830Z,33.68
2022-07-31T00:24:05.696Z,35.13
2022-07-31T00:25:05.692Z,31.74
2022-07-31T00:26:05.683Z,34.64
2022-07-31T00:27:06.148Z,33.35
2022-07-31T00:28:05.694Z,31.26
2022-07-31T00:29:05.655Z,31.10
2022-07-31T00:30:05.648Z,31.90
2022-07-31T00:31:05.641Z,34.00
2022-07-31T00:32:05.640Z,31.90
2022-07-31T00:33:05.658Z,31.74
2022-07-31T00:34:05.612Z,34.48
2022-07-31T00:35:05.655Z,35.45
2022-07-31T00:36:05.602Z,33.68
2022-07-31T00:37:05.860Z,31.58
2022-07-31T00:38:26.369Z,33.84
2022-07-31T00:39:07.578Z,31.42
2022-07-31T00:40:05.568Z,30.94
2022-07-31T00:41:05.565Z,32.87
2022-07-31T00:42:05.555Z,30.94
2022-07-31T00:43:05.550Z,31.42
2022-07-31T00:44:05.577Z,31.90
2022-07-31T00:45:06.530Z,32.39
2022-07-31T00:46:05.527Z,32.55
2022-07-31T00:47:06.755Z,31.42
2022-07-31T00:48:05.507Z,30.45
2022-07-31T00:49:05.587Z,30.78
2022-07-31T00:50:05.496Z,31.10
2022-07-31T00:51:05.489Z,31.42
2022-07-31T00:52:05.483Z,30.78
2022-07-31T00:53:05.473Z,31.26
2022-07-31T00:54:05.495Z,31.10
2022-07-31T00:55:05.455Z,32.07
2022-07-31T00:56:05.456Z,31.42
2022-07-31T00:57:05.791Z,31.10
2022-07-31T00:58:05.426Z,32.23
2022-07-31T00:59:05.451Z,31.74
2022-07-31T01:00:05.417Z,33.03
2022-07-31T01:01:05.443Z,32.07
2022-07-31T01:02:05.404Z,31.10
2022-07-31T01:03:05.393Z,31.26
2022-07-31T01:04:05.421Z,32.71
2022-07-31T01:05:05.380Z,32.71
2022-07-31T01:06:05.380Z,31.58
2022-07-31T01:07:05.662Z,31.42
2022-07-31T01:08:05.368Z,30.78
2022-07-31T01:09:05.377Z,32.39
2022-07-31T01:10:05.346Z,33.19
2022-07-31T01:11:05.338Z,31.90
2022-07-31T01:12:05.333Z,31.42
2022-07-31T01:13:05.323Z,32.87
2022-07-31T01:14:05.347Z,32.55
2022-07-31T01:15:05.302Z,31.74
2022-07-31T01:16:05.309Z,33.19
2022-07-31T01:17:05.738Z,32.87
2022-07-31T01:18:05.286Z,31.74
2022-07-31T01:19:05.304Z,35.93
2022-07-31T01:20:05.265Z,33.19
2022-07-31T01:21:37.946Z,34.64
2022-07-31T01:22:05.260Z,33.03
2022-07-31T01:23:06.242Z,35.77
2022-07-31T01:24:05.246Z,37.22
2022-07-31T01:25:06.236Z,30.78
2022-07-31T01:26:05.226Z,31.10
2022-07-31T01:27:05.576Z,33.19
2022-07-31T01:28:05.207Z,35.29
2022-07-31T01:29:05.225Z,32.87
2022-07-31T01:30:05.188Z,30.29
2022-07-31T01:31:25.577Z,31.10
2022-07-31T01:32:07.184Z,30.45
2022-07-31T01:33:05.174Z,29.97
2022-07-31T01:34:05.187Z,31.74
2022-07-31T01:35:05.150Z,33.03
2022-07-31T01:36:05.153Z,31.42
2022-07-31T01:37:05.555Z,33.19
2022-07-31T01:38:05.130Z,31.74
2022-07-31T01:39:05.168Z,30.94
2022-07-31T01:40:05.117Z,30.62
2022-07-31T01:41:05.111Z,30.13
2022-07-31T01:42:05.370Z,30.62
2022-07-31T01:43:05.099Z,31.26
2022-07-31T01:44:05.116Z,30.78
2022-07-31T01:45:05.083Z,31.42
2022-07-31T01:46:05.073Z,30.94
2022-07-31T01:47:05.390Z,31.58
2022-07-31T01:48:05.060Z,35.61
2022-07-31T01:49:05.158Z,32.23
2022-07-31T01:50:05.052Z,31.42
2022-07-31T01:51:05.034Z,31.90
2022-07-31T01:52:05.328Z,31.58
2022-07-31T01:53:05.022Z,30.94
2022-07-31T01:54:05.010Z,32.07
2022-07-31T01:55:05.034Z,32.87
2022-07-31T01:56:04.992Z,35.13
2022-07-31T01:57:04.987Z,34.16
2022-07-31T01:58:04.972Z,39.32
2022-07-31T01:59:20.746Z,39.80
2022-07-31T02:00:05.993Z,38.19
2022-07-31T02:01:06.025Z,38.35
2022-07-31T02:02:05.338Z,37.87
2022-07-31T02:03:09.436Z,42.06
2022-07-31T02:04:05.933Z,46.89
2022-07-31T02:05:04.962Z,45.60
2022-07-31T02:06:04.919Z,42.22
2022-07-31T02:07:04.917Z,38.83
2022-07-31T02:08:04.907Z,34.32
2022-07-31T02:09:04.907Z,32.07
2022-07-31T02:10:04.924Z,31.42
2022-07-31T02:11:04.896Z,31.26
2022-07-31T02:12:05.277Z,30.62
2022-07-31T02:13:04.872Z,30.45
2022-07-31T02:14:04.865Z,31.42
2022-07-31T02:15:04.882Z,30.78
2022-07-31T02:16:05.047Z,32.07
2022-07-31T02:17:04.842Z,30.78
2022-07-31T02:18:04.828Z,30.78
2022-07-31T02:19:04.826Z,32.07
2022-07-31T02:20:04.842Z,32.87
2022-07-31T02:21:04.794Z,32.23
2022-07-31T02:22:05.965Z,30.94
2022-07-31T02:23:04.796Z,32.87
2022-07-31T02:24:04.788Z,32.87
2022-07-31T02:25:04.807Z,31.10
2022-07-31T02:26:04.773Z,30.78
2022-07-31T02:27:04.759Z,32.23
2022-07-31T02:28:05.752Z,31.26
2022-07-31T02:29:04.770Z,32.07
2022-07-31T02:30:04.775Z,32.07
2022-07-31T02:31:04.734Z,30.78
2022-07-31T02:32:04.722Z,30.29
2022-07-31T02:33:04.724Z,31.10
2022-07-31T02:34:04.714Z,30.45
2022-07-31T02:35:04.726Z,30.62
2022-07-31T02:36:04.701Z,31.74
2022-07-31T02:37:04.688Z,30.94
2022-07-31T02:38:04.672Z,31.10
2022-07-31T02:39:04.669Z,30.45
2022-07-31T02:40:04.686Z,30.94
2022-07-31T02:41:04.661Z,30.78
2022-07-31T02:42:04.959Z,30.78
2022-07-31T02:43:04.637Z,31.58
2022-07-31T02:44:04.632Z,33.68
2022-07-31T02:45:04.648Z,30.94
2022-07-31T02:46:04.608Z,29.97
2022-07-31T02:47:04.603Z,30.94
2022-07-31T02:48:04.596Z,31.26
2022-07-31T02:49:04.622Z,32.87
2022-07-31T02:50:04.609Z,32.23
2022-07-31T02:51:04.582Z,32.07
2022-07-31T02:52:04.886Z,33.68
2022-07-31T02:53:04.560Z,32.23
2022-07-31T02:54:04.559Z,32.55
2022-07-31T02:55:04.566Z,32.87
2022-07-31T02:56:04.751Z,32.39
2022-07-31T02:57:04.528Z,32.71
2022-07-31T02:58:04.563Z,32.07
2022-07-31T02:59:04.501Z,32.55
2022-07-31T03:00:05.527Z,33.19
2022-07-31T03:01:04.591Z,33.68
2022-07-31T03:02:04.788Z,33.68
2022-07-31T03:03:04.478Z,39.16
2022-07-31T03:04:04.476Z,33.03
2022-07-31T03:05:04.494Z,33.68
2022-07-31T03:06:04.471Z,35.13
2022-07-31T03:07:04.447Z,34.32
2022-07-31T03:08:04.448Z,35.13
2022-07-31T03:09:04.439Z,33.52
2022-07-31T03:10:04.431Z,32.71
2022-07-31T03:11:04.446Z,32.07
2022-07-31T03:12:05.099Z,32.39
2022-07-31T03:13:04.423Z,32.23
2022-07-31T03:14:04.403Z,31.26
2022-07-31T03:15:04.393Z,32.55
2022-07-31T03:16:04.415Z,32.07
2022-07-31T03:17:04.376Z,32.71
2022-07-31T03:18:11.119Z,34.32
2022-07-31T03:19:05.359Z,32.23
2022-07-31T03:20:04.353Z,31.90
2022-07-31T03:21:04.376Z,34.00
2022-07-31T03:22:04.677Z,35.13
2022-07-31T03:23:04.335Z,32.87
2022-07-31T03:24:04.321Z,31.90
2022-07-31T03:25:04.319Z,32.39
2022-07-31T03:26:04.334Z,32.07
2022-07-31T03:27:04.301Z,32.55
2022-07-31T03:28:04.304Z,33.19
2022-07-31T03:29:04.283Z,32.39
2022-07-31T03:30:05.274Z,33.68
2022-07-31T03:31:04.295Z,32.39
2022-07-31T03:32:04.609Z,32.07
2022-07-31T03:33:04.252Z,33.68
2022-07-31T03:34:04.245Z,33.19
2022-07-31T03:35:04.234Z,32.71
2022-07-31T03:36:04.253Z,34.00
2022-07-31T03:37:04.225Z,42.70
2022-07-31T03:38:41.680Z,33.03
2022-07-31T03:39:05.209Z,33.84
2022-07-31T03:40:04.199Z,32.71
2022-07-31T03:41:04.216Z,33.68
2022-07-31T03:42:04.495Z,33.03
2022-07-31T03:43:04.179Z,32.87
2022-07-31T03:44:04.170Z,35.45
2022-07-31T03:45:04.171Z,34.97
2022-07-31T03:46:04.181Z,39.32
2022-07-31T03:47:04.154Z,35.29
2022-07-31T03:48:04.144Z,35.61
2022-07-31T03:49:04.173Z,38.03
2022-07-31T03:50:04.134Z,36.25
2022-07-31T03:51:04.150Z,34.32
2022-07-31T03:52:06.452Z,35.77
2022-07-31T03:53:06.099Z,33.03
2022-07-31T03:54:05.093Z,33.19
2022-07-31T03:55:04.087Z,33.35
2022-07-31T03:56:04.101Z,33.84
2022-07-31T03:57:04.076Z,32.71
2022-07-31T03:58:04.066Z,34.16
2022-07-31T03:59:04.058Z,32.87
2022-07-31T04:00:04.050Z,33.68
2022-07-31T04:01:04.677Z,32.71
2022-07-31T04:02:06.027Z,33.68
2022-07-31T04:03:04.035Z,35.45
2022-07-31T04:04:04.026Z,33.35
2022-07-31T04:05:09.506Z,34.97
2022-07-31T04:06:06.035Z,37.06
2022-07-31T04:07:04.007Z,36.90
2022-07-31T04:08:03.988Z,35.61
2022-07-31T04:09:07.872Z,34.32
2022-07-31T04:10:04.973Z,41.89
2022-07-31T04:11:03.994Z,35.45
2022-07-31T04:12:04.242Z,34.64
2022-07-31T04:13:03.950Z,33.52
2022-07-31T04:14:03.941Z,37.22
2022-07-31T04:15:03.934Z,33.84
2022-07-31T04:16:03.963Z,33.68
2022-07-31T04:17:03.920Z,31.90
2022-07-31T04:18:03.910Z,31.74
2022-07-31T04:19:03.902Z,34.64
2022-07-31T04:20:05.617Z,33.84
2022-07-31T04:21:03.939Z,32.87
2022-07-31T04:22:04.216Z,34.64
2022-07-31T04:23:03.871Z,34.64
2022-07-31T04:24:03.865Z,32.07
2022-07-31T04:25:03.847Z,32.07
2022-07-31T04:26:04.878Z,34.48
2022-07-31T04:27:03.844Z,31.26
2022-07-31T04:28:03.837Z,31.42
2022-07-31T04:29:03.839Z,38.19
2022-07-31T04:30:03.818Z,33.68
2022-07-31T04:31:03.839Z,33.03
2022-07-31T04:32:04.044Z,32.23
2022-07-31T04:33:03.801Z,31.90
2022-07-31T04:34:03.790Z,31.74
2022-07-31T04:35:03.786Z,32.07
2022-07-31T04:36:03.802Z,33.19
2022-07-31T04:37:03.769Z,32.55
2022-07-31T04:38:03.754Z,34.64
2022-07-31T04:39:03.754Z,37.54
2022-07-31T04:40:03.751Z,32.71
2022-07-31T04:41:03.768Z,39.96
2022-07-31T04:42:03.978Z,33.68
2022-07-31T04:43:03.726Z,32.23
2022-07-31T04:44:03.710Z,32.39
2022-07-31T04:45:03.704Z,31.90
2022-07-31T04:46:03.732Z,32.23
2022-07-31T04:47:04.684Z,31.58
2022-07-31T04:48:03.686Z,32.07
2022-07-31T04:49:03.789Z,33.03
2022-07-31T04:50:03.679Z,33.84
2022-07-31T04:51:03.679Z,33.68
2022-07-31T04:52:03.885Z,34.64
2022-07-31T04:53:03.648Z,34.32
2022-07-31T04:54:03.627Z,33.19
2022-07-31T04:55:03.629Z,32.55
2022-07-31T04:56:03.647Z,37.22
2022-07-31T04:57:03.614Z,31.42
2022-07-31T04:58:03.604Z,32.07
2022-07-31T04:59:03.595Z,36.42
2022-07-31T05:00:03.595Z,31.26
2022-07-31T05:01:03.603Z,33.68
2022-07-31T05:02:04.917Z,31.58
2022-07-31T05:03:03.571Z,29.33
2022-07-31T05:04:03.558Z,29.81
2022-07-31T05:05:03.545Z,30.29
2022-07-31T05:06:03.545Z,32.23
2022-07-31T05:07:03.556Z,31.74
2022-07-31T05:08:03.525Z,39.32
2022-07-31T05:09:08.447Z,31.58
2022-07-31T05:10:05.518Z,31.10
2022-07-31T05:11:03.502Z,33.84
2022-07-31T05:12:03.808Z,31.90
2022-07-31T05:13:03.491Z,32.07
2022-07-31T05:14:03.486Z,32.23
2022-07-31T05:15:03.478Z,31.42
2022-07-31T05:16:03.469Z,31.10
2022-07-31T05:17:03.485Z,31.26
2022-07-31T05:18:03.449Z,31.90
2022-07-31T05:19:03.446Z,35.77
2022-07-31T05:20:03.436Z,32.71
2022-07-31T05:21:03.431Z,32.07
2022-07-31T05:22:03.445Z,32.87
2022-07-31T05:23:06.566Z,32.87
2022-07-31T05:24:03.408Z,31.10
2022-07-31T05:25:03.393Z,32.07
2022-07-31T05:26:03.402Z,36.25
2022-07-31T05:27:03.423Z,34.64
2022-07-31T05:28:03.376Z,33.19
2022-07-31T05:29:04.377Z,31.42
2022-07-31T05:30:03.365Z,31.42
2022-07-31T05:31:03.363Z,30.78
2022-07-31T05:32:03.377Z,30.94
2022-07-31T05:33:03.327Z,30.78
2022-07-31T05:34:04.332Z,31.10
2022-07-31T05:35:03.328Z,30.29
2022-07-31T05:36:03.318Z,31.10
2022-07-31T05:37:03.357Z,38.35
2022-07-31T05:38:03.301Z,30.45
2022-07-31T05:39:03.299Z,30.13
2022-07-31T05:40:03.284Z,30.13
2022-07-31T05:41:03.281Z,33.52
2022-07-31T05:42:03.534Z,32.23
2022-07-31T05:43:03.263Z,30.29
2022-07-31T05:44:03.256Z,30.29
2022-07-31T05:45:03.247Z,30.45
2022-07-31T05:46:03.242Z,30.94
2022-07-31T05:47:03.262Z,30.13
2022-07-31T05:48:03.223Z,34.00
2022-07-31T05:49:03.298Z,32.71
2022-07-31T05:50:03.226Z,30.45
2022-07-31T05:51:05.574Z,31.74
2022-07-31T05:52:04.470Z,31.42
2022-07-31T05:53:03.193Z,32.87
2022-07-31T05:54:03.179Z,31.58
2022-07-31T05:55:03.177Z,31.42
2022-07-31T05:56:03.161Z,31.58
2022-07-31T05:57:03.181Z,29.65
2022-07-31T05:58:03.145Z,30.78
2022-07-31T05:59:03.146Z,32.71
2022-07-31T06:00:03.804Z,31.58
2022-07-31T06:01:03.168Z,32.71
2022-07-31T06:02:03.509Z,30.45
2022-07-31T06:03:03.117Z,31.26
2022-07-31T06:04:03.108Z,31.42
2022-07-31T06:05:03.091Z,32.07
2022-07-31T06:06:03.092Z,35.29
2022-07-31T06:07:03.110Z,32.55
2022-07-31T06:08:03.067Z,35.45
2022-07-31T06:09:04.786Z,34.00
2022-07-31T06:10:04.079Z,35.77
2022-07-31T06:11:03.048Z,31.58
2022-07-31T06:12:03.350Z,34.64
2022-07-31T06:13:03.033Z,31.10
2022-07-31T06:14:03.142Z,31.74
2022-07-31T06:15:03.019Z,31.58
2022-07-31T06:16:03.013Z,31.26
2022-07-31T06:17:03.029Z,34.64
2022-07-31T06:18:02.997Z,32.39
2022-07-31T06:19:02.991Z,39.96
2022-07-31T06:20:02.981Z,32.23
2022-07-31T06:21:02.972Z,31.74
2022-07-31T06:22:03.293Z,36.58
2022-07-31T06:23:02.954Z,34.16
2022-07-31T06:24:03.948Z,33.19
2022-07-31T06:25:02.938Z,35.13
2022-07-31T06:26:03.398Z,31.90
2022-07-31T06:27:02.949Z,37.71
2022-07-31T06:28:04.200Z,33.03
2022-07-31T06:29:03.905Z,32.07
2022-07-31T06:30:02.907Z,30.78
2022-07-31T06:31:02.936Z,32.23
2022-07-31T06:32:03.256Z,31.58
2022-07-31T06:33:08.174Z,36.09
2022-07-31T06:34:03.864Z,30.94
2022-07-31T06:35:02.869Z,31.58
2022-07-31T06:36:02.893Z,33.35
2022-07-31T06:37:02.849Z,42.70
2022-07-31T06:38:02.859Z,31.42
2022-07-31T06:39:02.824Z,32.55
2022-07-31T06:40:02.830Z,39.64
2022-07-31T06:41:02.809Z,34.16
2022-07-31T06:42:03.106Z,35.45
2022-07-31T06:43:06.731Z,33.19
2022-07-31T06:44:03.786Z,32.39
2022-07-31T06:45:02.779Z,42.22
2022-07-31T06:46:02.775Z,33.19
2022-07-31T06:47:02.775Z,29.81
2022-07-31T06:48:02.791Z,33.19
2022-07-31T06:49:08.296Z,32.71
2022-07-31T06:50:04.739Z,42.70
2022-07-31T06:51:29.775Z,34.64
2022-07-31T06:52:05.137Z,32.07
2022-07-31T06:53:02.742Z,31.58
2022-07-31T06:54:02.710Z,36.74
2022-07-31T06:55:02.708Z,31.58
2022-07-31T06:56:02.689Z,33.68
2022-07-31T06:57:02.673Z,31.26
2022-07-31T06:58:03.703Z,31.42
2022-07-31T06:59:02.671Z,32.71
2022-07-31T07:00:07.229Z,30.62
2022-07-31T07:01:04.700Z,32.87
2022-07-31T07:02:03.028Z,30.62
2022-07-31T07:03:02.667Z,40.93
2022-07-31T07:04:02.639Z,31.58
2022-07-31T07:05:05.596Z,37.87
2022-07-31T07:06:02.624Z,31.74
2022-07-31T07:07:02.610Z,41.41
2022-07-31T07:08:02.623Z,33.19
2022-07-31T07:09:02.608Z,35.45
2022-07-31T07:10:02.590Z,38.03
2022-07-31T07:11:02.581Z,35.13
2022-07-31T07:12:02.669Z,35.77
2022-07-31T07:13:02.597Z,34.16
2022-07-31T07:14:02.555Z,32.23
2022-07-31T07:15:02.549Z,40.44
2022-07-31T07:16:02.544Z,41.73
2022-07-31T07:17:02.545Z,30.78
2022-07-31T07:18:02.560Z,34.97
2022-07-31T07:19:02.531Z,34.00
2022-07-31T07:20:02.510Z,43.18
2022-07-31T07:21:02.498Z,31.10
2022-07-31T07:22:35.070Z,34.97
2022-07-31T07:23:02.524Z,37.22
2022-07-31T07:24:02.482Z,37.71
2022-07-31T07:25:02.475Z,35.13
2022-07-31T07:26:02.475Z,39.32
2022-07-31T07:27:02.459Z,39.32
2022-07-31T07:28:02.478Z,37.22
2022-07-31T07:29:02.448Z,32.23
2022-07-31T07:30:02.455Z,40.61
2022-07-31T07:31:02.513Z,39.80
2022-07-31T07:32:02.938Z,39.80
2022-07-31T07:33:02.440Z,34.00
2022-07-31T07:34:02.405Z,37.06
2022-07-31T07:35:02.403Z,36.25
2022-07-31T07:36:02.390Z,33.52
2022-07-31T07:37:02.378Z,35.29
2022-07-31T07:38:02.402Z,43.02
2022-07-31T07:39:02.369Z,34.16
2022-07-31T07:40:03.644Z,35.61
2022-07-31T07:41:02.353Z,43.18
2022-07-31T07:42:02.618Z,39.96
2022-07-31T07:43:03.289Z,42.06
2022-07-31T07:44:03.333Z,32.07
2022-07-31T07:45:02.332Z,31.90
2022-07-31T07:46:02.317Z,34.00
2022-07-31T07:47:02.387Z,38.35
2022-07-31T07:48:06.164Z,44.15
2022-07-31T07:49:03.330Z,35.61
2022-07-31T07:50:02.292Z,38.67
2022-07-31T07:51:02.278Z,40.12
2022-07-31T07:52:02.269Z,37.22
2022-07-31T07:53:02.293Z,35.29
2022-07-31T07:54:02.263Z,33.19
2022-07-31T07:55:02.252Z,33.19
2022-07-31T07:56:02.245Z,37.87
2022-07-31T07:57:02.234Z,33.68
2022-07-31T07:58:02.228Z,35.13
2022-07-31T07:59:02.248Z,38.51
2022-07-31T08:00:02.217Z,33.03
2022-07-31T08:01:02.290Z,36.25
2022-07-31T08:02:02.647Z,38.03
2022-07-31T08:03:46.536Z,30.94
2022-07-31T08:04:03.205Z,39.16
2022-07-31T08:05:02.181Z,34.32
2022-07-31T08:06:02.169Z,36.74
2022-07-31T08:07:02.162Z,33.03
2022-07-31T08:08:02.168Z,34.32
2022-07-31T08:09:02.184Z,38.51
2022-07-31T08:10:02.141Z,43.83
2022-07-31T08:11:02.148Z,47.37
2022-07-31T08:12:02.418Z,33.84
2022-07-31T08:13:02.117Z,33.03
2022-07-31T08:14:02.149Z,41.57
2022-07-31T08:15:02.103Z,32.87
2022-07-31T08:16:02.093Z,37.71
2022-07-31T08:17:02.089Z,33.35
2022-07-31T08:18:02.221Z,37.38
2022-07-31T08:19:02.103Z,35.13
2022-07-31T08:20:02.066Z,40.93
2022-07-31T08:21:02.059Z,33.35
2022-07-31T08:22:02.267Z,44.63
2022-07-31T08:23:02.091Z,37.71
2022-07-31T08:24:02.061Z,37.38
2022-07-31T08:25:05.358Z,34.64
2022-07-31T08:26:02.021Z,40.44
2022-07-31T08:27:02.013Z,35.61
2022-07-31T08:28:02.999Z,38.99
2022-07-31T08:29:05.068Z,38.35
2022-07-31T08:30:02.988Z,32.55
2022-07-31T08:31:01.980Z,38.99
2022-07-31T08:32:02.399Z,43.51
2022-07-31T08:33:02.016Z,39.48
2022-07-31T08:34:01.992Z,37.71
2022-07-31T08:35:01.960Z,36.25
2022-07-31T08:36:01.944Z,36.09
2022-07-31T08:37:52.119Z,33.52
2022-07-31T08:38:04.796Z,41.09
2022-07-31T08:39:01.947Z,34.48
2022-07-31T08:40:01.913Z,37.54
2022-07-31T08:41:01.909Z,37.38
2022-07-31T08:42:02.338Z,34.16
2022-07-31T08:43:03.172Z,42.38
2022-07-31T08:44:04.376Z,38.19
2022-07-31T08:45:02.887Z,35.13
2022-07-31T08:46:01.866Z,44.31
2022-07-31T08:47:01.861Z,42.06
2022-07-31T08:48:01.852Z,38.83
2022-07-31T08:49:01.957Z,40.44
2022-07-31T08:50:01.845Z,41.89
2022-07-31T08:51:01.826Z,37.06
2022-07-31T08:52:02.281Z,39.32
2022-07-31T08:53:01.811Z,39.80
2022-07-31T08:54:01.836Z,37.22
2022-07-31T08:55:01.798Z,32.87
2022-07-31T08:56:01.786Z,38.03
2022-07-31T08:57:02.165Z,41.89
2022-07-31T08:58:01.774Z,41.73
2022-07-31T08:59:01.792Z,34.97
2022-07-31T09:00:01.755Z,32.07
2022-07-31T09:01:01.819Z,33.68
2022-07-31T09:02:02.141Z,40.61
2022-07-31T09:03:01.733Z,40.77
2022-07-31T09:04:01.747Z,35.45
2022-07-31T09:05:01.720Z,33.19
2022-07-31T09:06:01.711Z,37.87
2022-07-31T09:07:02.102Z,43.02
2022-07-31T09:08:01.691Z,39.96
2022-07-31T09:09:01.718Z,42.06
2022-07-31T09:10:01.686Z,41.09
2022-07-31T09:11:01.681Z,33.35
2022-07-31T09:12:01.669Z,35.45
2022-07-31T09:13:01.687Z,33.52
2022-07-31T09:14:03.027Z,33.03
2022-07-31T09:15:01.677Z,36.25
2022-07-31T09:16:01.670Z,36.74
2022-07-31T09:17:02.026Z,34.97
2022-07-31T09:18:01.627Z,32.87
2022-07-31T09:19:01.606Z,40.12
2022-07-31T09:20:01.640Z,35.77
2022-07-31T09:21:02.070Z,36.42
2022-07-31T09:22:01.608Z,36.09
2022-07-31T09:23:01.585Z,33.19
2022-07-31T09:24:01.594Z,45.60
2022-07-31T09:25:01.601Z,40.93
2022-07-31T09:26:01.561Z,42.06
2022-07-31T09:27:01.722Z,37.87
2022-07-31T09:28:01.578Z,42.54
2022-07-31T09:29:01.551Z,40.12
2022-07-31T09:30:01.559Z,41.41
2022-07-31T09:31:01.532Z,36.90
2022-07-31T09:32:01.525Z,39.48
2022-07-31T09:33:01.518Z,38.99
2022-07-31T09:34:01.508Z,40.77
2022-07-31T09:35:01.528Z,42.54
2022-07-31T09:36:01.490Z,41.25
2022-07-31T09:37:01.735Z,44.31
2022-07-31T09:38:01.480Z,39.48
2022-07-31T09:39:05.258Z,39.80
2022-07-31T09:40:01.848Z,43.83
2022-07-31T09:41:01.465Z,36.09
2022-07-31T09:42:17.015Z,42.06
2022-07-31T09:43:03.198Z,44.31
2022-07-31T09:44:01.468Z,41.73
2022-07-31T09:45:01.466Z,36.25
2022-07-31T09:46:01.449Z,34.80
2022-07-31T09:47:01.702Z,38.67
2022-07-31T09:48:01.464Z,41.57
2022-07-31T09:49:01.447Z,39.16
2022-07-31T09:50:01.425Z,34.80
2022-07-31T09:51:01.391Z,39.80
2022-07-31T09:52:01.377Z,45.44
2022-07-31T09:53:01.364Z,43.51
2022-07-31T09:54:01.356Z,46.08
2022-07-31T09:55:01.404Z,36.74
2022-07-31T09:56:01.342Z,36.58
2022-07-31T09:57:01.526Z,37.71
2022-07-31T09:58:01.330Z,41.09
2022-07-31T09:59:01.318Z,42.70
2022-07-31T10:00:01.345Z,44.15
2022-07-31T10:01:01.361Z,41.73
2022-07-31T10:02:01.295Z,45.92
2022-07-31T10:03:01.295Z,37.06
2022-07-31T10:04:01.339Z,33.03
2022-07-31T10:05:01.324Z,37.06
2022-07-31T10:06:01.268Z,40.44
2022-07-31T10:07:01.448Z,36.58
2022-07-31T10:08:01.270Z,46.25
2022-07-31T10:09:01.251Z,38.67
2022-07-31T10:10:01.296Z,36.25
2022-07-31T10:11:01.231Z,44.15
2022-07-31T10:12:01.228Z,40.93
2022-07-31T10:13:01.298Z,38.83
2022-07-31T10:14:01.213Z,40.93
2022-07-31T10:15:01.233Z,38.35
2022-07-31T10:16:01.195Z,42.86
2022-07-31T10:17:02.565Z,43.18
2022-07-31T10:18:01.180Z,43.51
2022-07-31T10:19:01.181Z,44.15
2022-07-31T10:20:01.164Z,41.57
2022-07-31T10:21:01.183Z,38.19
2022-07-31T10:22:01.147Z,35.77
2022-07-31T10:23:01.143Z,44.15
2022-07-31T10:24:01.137Z,37.06
2022-07-31T10:25:01.119Z,45.60
2022-07-31T10:26:01.158Z,44.47
2022-07-31T10:27:07.804Z,41.41
2022-07-31T10:28:03.102Z,42.54
2022-07-31T10:29:01.099Z,43.83
2022-07-31T10:30:01.097Z,38.67
2022-07-31T10:31:01.119Z,40.93
2022-07-31T10:32:01.075Z,40.77
2022-07-31T10:33:01.064Z,37.87
2022-07-31T10:34:01.053Z,39.32
2022-07-31T10:35:01.051Z,41.73
2022-07-31T10:36:01.069Z,43.02
2022-07-31T10:37:01.173Z,33.19
2022-07-31T10:38:01.028Z,39.32
2022-07-31T10:39:01.015Z,37.38
2022-07-31T10:40:01.015Z,44.47
2022-07-31T10:41:01.036Z,39.32
2022-07-31T10:42:01.017Z,40.28
2022-07-31T10:43:01.018Z,41.41
2022-07-31T10:44:00.984Z,35.13
2022-07-31T10:45:00.970Z,37.54
2022-07-31T10:46:00.986Z,39.16
2022-07-31T10:47:00.953Z,37.06
2022-07-31T10:48:00.963Z,43.83
2022-07-31T10:49:00.978Z,41.41
2022-07-31T10:50:01.938Z,34.48
2022-07-31T10:51:00.947Z,37.06
2022-07-31T10:52:00.920Z,37.87
2022-07-31T10:53:00.910Z,33.84
2022-07-31T10:54:00.966Z,41.89
2022-07-31T10:55:00.902Z,42.86
2022-07-31T10:56:00.922Z,38.35
2022-07-31T10:57:00.981Z,40.44
2022-07-31T10:58:00.878Z,34.64
2022-07-31T10:59:00.863Z,45.28
2022-07-31T11:00:00.869Z,46.08
2022-07-31T11:01:00.876Z,39.80
2022-07-31T11:02:00.897Z,39.96
2022-07-31T11:03:00.884Z,40.61
2022-07-31T11:04:00.841Z,34.97
2022-07-31T11:05:00.828Z,36.58
2022-07-31T11:06:02.898Z,45.92
2022-07-31T11:07:00.814Z,34.32
2022-07-31T11:08:00.802Z,42.06
2022-07-31T11:09:00.794Z,34.00
2022-07-31T11:10:00.790Z,42.70
2022-07-31T11:11:00.817Z,44.96
2022-07-31T11:12:00.769Z,45.76
2022-07-31T11:13:00.758Z,43.51
2022-07-31T11:14:00.759Z,42.86
2022-07-31T11:15:00.749Z,40.93
2022-07-31T11:16:00.762Z,37.06
2022-07-31T11:17:00.756Z,36.58
2022-07-31T11:18:22.148Z,33.35
2022-07-31T11:19:01.734Z,42.22
2022-07-31T11:20:00.715Z,41.09
2022-07-31T11:21:06.187Z,34.97
2022-07-31T11:22:31.244Z,39.32
2022-07-31T11:23:01.692Z,38.99
2022-07-31T11:24:03.345Z,47.70
2022-07-31T11:25:00.822Z,39.64
2022-07-31T11:26:00.663Z,45.60
2022-07-31T11:27:00.687Z,39.16
2022-07-31T11:28:00.649Z,39.48
2022-07-31T11:30:00.452Z,36.09
2022-07-31T11:30:04.744Z,42.70
2022-07-31T11:31:02.635Z,38.51
2022-07-31T11:32:00.649Z,38.35
2022-07-31T11:33:00.613Z,42.22
2022-07-31T11:34:00.603Z,42.86
2022-07-31T11:35:00.601Z,37.54
2022-07-31T11:36:00.595Z,39.80
2022-07-31T11:37:00.617Z,41.89
2022-07-31T11:38:00.598Z,40.28
2022-07-31T11:39:00.619Z,34.16
2022-07-31T11:40:00.576Z,38.35
2022-07-31T11:41:00.563Z,40.77
2022-07-31T11:42:00.582Z,39.80
2022-07-31T11:43:24.762Z,37.54
2022-07-31T11:44:02.542Z,43.83
2022-07-31T11:45:00.539Z,38.99
2022-07-31T11:46:00.525Z,37.22
2022-07-31T11:47:00.568Z,39.80
2022-07-31T11:48:11.033Z,46.25
2022-07-31T11:49:01.577Z,40.61
2022-07-31T11:50:00.592Z,36.58
2022-07-31T11:51:00.490Z,39.80
2022-07-31T11:52:00.502Z,38.35
2022-07-31T11:53:00.472Z,43.18
2022-07-31T11:54:00.469Z,39.96
2022-07-31T11:55:04.231Z,36.58
2022-07-31T11:56:01.458Z,39.80
2022-07-31T11:57:00.580Z,44.96
2022-07-31T11:58:00.436Z,44.31
2022-07-31T11:59:00.418Z,39.80
2022-07-31T12:00:01.424Z,32.71
2022-07-31T12:01:01.416Z,40.28
2022-07-31T12:02:00.444Z,43.83
2022-07-31T12:03:00.477Z,37.87
2022-07-31T12:04:07.515Z,44.47
2022-07-31T12:05:01.392Z,46.89
2022-07-31T12:06:00.375Z,39.64
2022-07-31T12:07:00.410Z,43.02
2022-07-31T12:08:00.367Z,42.70
2022-07-31T12:09:00.354Z,37.06
2022-07-31T12:10:03.429Z,40.44
2022-07-31T12:11:00.355Z,41.09
2022-07-31T12:12:01.389Z,42.06
2022-07-31T12:13:00.334Z,37.87
2022-07-31T12:14:00.345Z,37.06
2022-07-31T12:15:00.318Z,40.28
2022-07-31T12:16:00.304Z,41.89
2022-07-31T12:17:00.306Z,40.77
2022-07-31T12:18:00.325Z,48.66
2022-07-31T12:19:00.282Z,37.38
2022-07-31T12:20:00.272Z,43.51
2022-07-31T12:21:00.272Z,43.67
2022-07-31T12:22:00.265Z,42.06
2022-07-31T12:23:00.273Z,35.45
2022-07-31T12:24:00.250Z,40.28
2022-07-31T12:25:00.244Z,36.58
2022-07-31T12:26:00.233Z,42.54
2022-07-31T12:27:00.227Z,44.15
2022-07-31T12:28:00.243Z,43.18
2022-07-31T12:29:00.217Z,41.25
2022-07-31T12:30:00.219Z,39.64
2022-07-31T12:31:00.229Z,38.83
2022-07-31T12:32:00.182Z,36.90
2022-07-31T12:33:00.208Z,39.64
2022-07-31T12:34:00.173Z,40.77
2022-07-31T12:35:00.162Z,45.28
2022-07-31T12:36:00.156Z,36.74
2022-07-31T12:37:00.155Z,46.57
2022-07-31T12:38:00.183Z,44.47
2022-07-31T12:39:00.136Z,40.61
2022-07-31T12:40:01.417Z,40.12
2022-07-31T12:41:00.132Z,34.32
2022-07-31T12:42:00.117Z,44.47
2022-07-31T12:43:00.134Z,45.12
2022-07-31T12:44:00.105Z,39.80
2022-07-31T12:45:00.092Z,38.35
2022-07-31T12:46:00.101Z,44.79
2022-07-31T12:47:00.093Z,36.42
2022-07-31T12:48:00.102Z,38.35
2022-07-31T12:49:00.100Z,40.44
2022-07-31T12:50:00.080Z,42.38
2022-07-31T12:51:00.052Z,39.16
2022-07-31T12:52:00.044Z,36.25